createdAt,value
2019-05-09T00:00:53.546Z,5.47
2019-05-09T00:03:24.111Z,5.45
2019-05-09T00:05:54.201Z,5.25
2019-05-09T00:08:23.375Z,5.17
2019-05-09T00:10:53.467Z,5.17
2019-05-09T00:13:23.721Z,5.62
2019-05-09T00:15:54.206Z,5.08
2019-05-09T00:18:23.366Z,5.42
2019-05-09T00:21:06.111Z,5.70
2019-05-09T00:23:34.794Z,5.42
2019-05-09T00:26:04.193Z,5.10
2019-05-09T00:28:36.082Z,6.30
2019-05-09T00:31:10.123Z,6.28
2019-05-09T00:33:39.103Z,5.55
2019-05-09T00:36:07.592Z,5.60
2019-05-09T00:38:40.517Z,5.58
2019-05-09T00:41:09.633Z,6.28
2019-05-09T00:43:39.081Z,5.37
2019-05-09T00:46:09.359Z,6.12
2019-05-09T00:48:55.007Z,6.45
2019-05-09T00:51:23.784Z,6.20
2019-05-09T00:53:53.652Z,6.65
2019-05-09T00:56:23.935Z,6.87
2019-05-09T00:58:53.563Z,7.80
2019-05-09T01:01:23.984Z,8.08
2019-05-09T01:03:53.674Z,8.53
2019-05-09T01:06:23.986Z,8.95
2019-05-09T01:08:53.709Z,8.20
2019-05-09T01:11:24.253Z,8.10
2019-05-09T01:13:54.374Z,7.95
2019-05-09T01:16:24.089Z,7.10
2019-05-09T01:18:54.622Z,7.40
2019-05-09T01:21:24.106Z,7.40
2019-05-09T01:23:53.935Z,8.05
2019-05-09T01:26:23.975Z,6.78
2019-05-09T01:28:54.073Z,6.90
2019-05-09T01:31:24.450Z,6.83
2019-05-09T01:34:00.485Z,6.58
2019-05-09T01:36:30.689Z,6.60
2019-05-09T01:38:59.449Z,6.40
2019-05-09T01:41:31.961Z,6.80
2019-05-09T01:43:59.777Z,7.12
2019-05-09T01:46:28.397Z,7.20
2019-05-09T01:48:57.348Z,7.03
2019-05-09T01:51:25.955Z,6.50
2019-05-09T01:53:55.014Z,5.95
2019-05-09T01:56:23.739Z,6.40
2019-05-09T01:58:53.819Z,6.72
2019-05-09T02:01:24.060Z,6.20
2019-05-09T02:03:53.667Z,6.45
2019-05-09T02:06:24.453Z,6.85
2019-05-09T02:08:54.538Z,6.95
2019-05-09T02:11:25.327Z,6.25
2019-05-09T02:13:54.105Z,6.30
2019-05-09T02:16:26.911Z,6.15
2019-05-09T02:18:59.909Z,6.40
2019-05-09T02:21:28.566Z,6.65
2019-05-09T02:23:57.465Z,6.53
2019-05-09T02:26:26.059Z,6.60
2019-05-09T02:28:54.586Z,6.20
2019-05-09T02:31:24.591Z,6.85
2019-05-09T02:33:54.325Z,5.83
2019-05-09T02:36:23.171Z,5.67
2019-05-09T02:38:52.222Z,5.20
2019-05-09T02:41:20.952Z,5.67
2019-05-09T02:43:49.963Z,5.10
2019-05-09T02:46:29.659Z,5.60
2019-05-09T02:48:59.405Z,4.95
2019-05-09T02:51:29.198Z,5.28
2019-05-09T02:53:58.767Z,4.60
2019-05-09T02:56:29.436Z,5.17
2019-05-09T02:59:02.908Z,5.17
2019-05-09T03:01:39.126Z,5.22
2019-05-09T03:04:08.469Z,5.67
2019-05-09T03:06:39.188Z,5.20
2019-05-09T03:09:08.916Z,6.30
2019-05-09T03:11:38.982Z,5.70
2019-05-09T03:14:09.064Z,5.25
2019-05-09T03:16:39.724Z,5.95
2019-05-09T03:19:09.281Z,5.37
2019-05-09T03:21:40.010Z,5.33
2019-05-09T03:24:09.833Z,5.60
2019-05-09T03:26:40.575Z,6.00
2019-05-09T03:29:13.679Z,5.60
2019-05-09T03:31:43.685Z,5.95
2019-05-09T03:34:12.302Z,6.03
2019-05-09T03:36:40.882Z,6.22
2019-05-09T03:39:09.790Z,6.22
2019-05-09T03:41:39.497Z,6.55
2019-05-09T03:44:08.397Z,7.03
2019-05-09T03:46:54.202Z,6.45
2019-05-09T03:49:24.325Z,6.30
2019-05-09T03:51:52.877Z,6.97
2019-05-09T03:54:21.522Z,6.33
2019-05-09T03:57:00.181Z,6.40
2019-05-09T03:59:29.033Z,7.00
2019-05-09T04:01:59.058Z,7.03
2019-05-09T04:04:28.178Z,6.35
2019-05-09T04:06:58.102Z,6.35
2019-05-09T04:09:27.612Z,6.42
2019-05-09T04:11:59.890Z,5.72
2019-05-09T04:14:28.509Z,6.45
2019-05-09T04:16:57.614Z,5.92
2019-05-09T04:19:27.604Z,6.25
2019-05-09T04:21:57.643Z,5.83
2019-05-09T04:24:28.077Z,5.28
2019-05-09T04:27:01.367Z,5.80
2019-05-09T04:29:29.896Z,5.42
2019-05-09T04:31:58.842Z,5.45
2019-05-09T04:34:27.700Z,4.53
2019-05-09T04:36:57.631Z,4.75
2019-05-09T04:39:28.212Z,5.65
2019-05-09T04:42:03.438Z,4.28
2019-05-09T04:44:32.642Z,4.73
2019-05-09T04:47:03.557Z,4.65
2019-05-09T04:49:39.281Z,5.08
2019-05-09T04:52:02.267Z,4.35
2019-05-09T04:54:30.735Z,4.78
2019-05-09T04:56:59.415Z,4.37
2019-05-09T04:59:28.455Z,4.97
2019-05-09T05:02:18.286Z,4.90
2019-05-09T05:04:47.937Z,4.50
2019-05-09T05:07:18.055Z,5.10
2019-05-09T05:09:48.356Z,4.90
2019-05-09T05:12:18.555Z,5.03
2019-05-09T05:14:47.645Z,4.87
2019-05-09T05:17:17.953Z,5.53
2019-05-09T05:19:47.649Z,4.17
2019-05-09T05:22:20.754Z,4.50
2019-05-09T05:24:51.032Z,4.62
2019-05-09T05:27:19.565Z,4.85
2019-05-09T05:29:48.196Z,4.65
2019-05-09T05:32:20.948Z,4.80
2019-05-09T05:35:00.378Z,4.78
2019-05-09T05:37:28.897Z,4.60
2019-05-09T05:39:58.282Z,5.08
2019-05-09T05:42:28.260Z,4.90
2019-05-09T05:44:58.252Z,4.60
2019-05-09T05:47:34.646Z,4.17
2019-05-09T05:50:05.355Z,4.65
2019-05-09T05:52:33.893Z,4.87
2019-05-09T05:55:02.572Z,5.45
2019-05-09T05:57:31.111Z,5.05
2019-05-09T05:59:59.899Z,5.60
2019-05-09T06:02:28.530Z,5.53
2019-05-09T06:04:58.054Z,5.67
2019-05-09T06:07:28.513Z,5.30
2019-05-09T06:09:57.677Z,5.05
2019-05-09T06:12:27.660Z,5.55
2019-05-09T06:14:58.283Z,5.55
2019-05-09T06:17:28.619Z,4.58
2019-05-09T06:19:59.201Z,5.78
2019-05-09T06:22:27.832Z,4.50
2019-05-09T06:24:58.292Z,5.33
2019-05-09T06:27:27.548Z,5.25
2019-05-09T06:29:58.453Z,5.10
2019-05-09T06:32:27.994Z,4.87
2019-05-09T06:34:57.882Z,4.83
2019-05-09T06:37:27.718Z,4.30
2019-05-09T06:39:58.295Z,4.87
2019-05-09T06:42:28.685Z,4.30
2019-05-09T06:45:18.034Z,4.45
2019-05-09T06:47:48.685Z,4.60
2019-05-09T06:50:20.577Z,4.40
2019-05-09T06:52:49.172Z,4.30
2019-05-09T06:55:17.774Z,4.33
2019-05-09T06:57:48.684Z,4.30
2019-05-09T07:00:21.480Z,4.28
2019-05-09T07:02:51.693Z,4.40
2019-05-09T07:05:21.813Z,4.70
2019-05-09T07:07:52.082Z,4.45
2019-05-09T07:10:20.856Z,4.35
2019-05-09T07:12:49.415Z,4.90
2019-05-09T07:15:18.318Z,4.22
2019-05-09T07:17:48.177Z,4.65
2019-05-09T07:20:18.236Z,4.15
2019-05-09T07:22:51.296Z,4.12
2019-05-09T07:25:21.483Z,4.62
2019-05-09T07:27:50.048Z,4.45
2019-05-09T07:30:23.464Z,4.45
2019-05-09T07:32:53.660Z,4.58
2019-05-09T07:35:22.130Z,4.62
2019-05-09T07:37:50.843Z,4.70
2019-05-09T07:40:19.623Z,4.22
2019-05-09T07:42:48.227Z,5.10
2019-05-09T07:45:17.958Z,4.75
2019-05-09T07:47:47.865Z,5.22
2019-05-09T07:50:18.940Z,5.08
2019-05-09T07:52:47.743Z,5.15
2019-05-09T07:55:18.106Z,4.75
2019-05-09T07:57:54.749Z,5.87
2019-05-09T08:00:27.732Z,5.78
2019-05-09T08:02:58.113Z,4.78
2019-05-09T08:05:31.378Z,5.80
2019-05-09T08:08:00.099Z,5.78
2019-05-09T08:10:32.951Z,5.85
2019-05-09T08:12:59.222Z,5.83
2019-05-09T08:15:28.224Z,6.53
2019-05-09T08:17:59.090Z,6.62
2019-05-09T08:20:27.981Z,7.05
2019-05-09T08:23:01.373Z,6.47
2019-05-09T08:25:27.904Z,7.67
2019-05-09T08:27:58.823Z,7.62
2019-05-09T08:30:35.599Z,9.00
2019-05-09T08:32:59.858Z,8.15
2019-05-09T08:35:28.185Z,8.80
2019-05-09T08:37:58.225Z,10.25
2019-05-09T08:40:28.306Z,11.43
2019-05-09T08:42:58.821Z,11.18
2019-05-09T08:45:31.291Z,11.10
2019-05-09T08:47:58.449Z,12.05
2019-05-09T08:50:44.047Z,12.03
2019-05-09T08:53:12.652Z,11.93
2019-05-09T08:55:41.280Z,11.68
2019-05-09T08:58:09.797Z,9.45
2019-05-09T09:00:39.224Z,8.45
2019-05-09T09:03:08.202Z,9.53
2019-05-09T09:05:38.239Z,8.00
2019-05-09T09:08:08.223Z,6.50
2019-05-09T09:10:38.510Z,7.17
2019-05-09T09:13:08.888Z,7.58
2019-05-09T09:16:02.446Z,13.35
2019-05-09T09:18:08.773Z,18.12
2019-05-09T09:20:38.283Z,16.05
2019-05-09T09:23:08.963Z,14.35
2019-05-09T09:25:38.918Z,15.48
2019-05-09T09:28:08.824Z,12.23
2019-05-09T09:30:39.023Z,12.60
2019-05-09T09:33:11.265Z,12.90
2019-05-09T09:35:38.496Z,11.85
2019-05-09T09:38:09.394Z,11.88
2019-05-09T09:40:38.728Z,15.18
2019-05-09T09:43:09.172Z,15.65
2019-05-09T09:45:38.013Z,14.30
2019-05-09T09:48:08.976Z,12.68
2019-05-09T09:50:38.419Z,16.05
2019-05-09T09:53:08.840Z,15.40
2019-05-09T09:55:38.403Z,13.28
2019-05-09T09:58:08.245Z,13.55
2019-05-09T10:00:49.526Z,13.60
2019-05-09T10:03:18.770Z,11.40
2019-05-09T10:05:48.587Z,15.08
2019-05-09T10:08:18.106Z,13.40
2019-05-09T10:10:48.419Z,14.07
2019-05-09T10:13:18.585Z,16.65
2019-05-09T10:15:49.077Z,17.35
2019-05-09T10:18:19.272Z,15.70
2019-05-09T10:20:55.764Z,18.45
2019-05-09T10:23:24.571Z,13.83
2019-05-09T10:25:53.174Z,11.83
2019-05-09T10:28:21.880Z,11.70
2019-05-09T10:30:50.852Z,11.38
2019-05-09T10:33:19.505Z,12.63
2019-05-09T10:35:48.062Z,13.22
2019-05-09T10:38:18.398Z,13.08
2019-05-09T10:40:48.521Z,12.37
2019-05-09T10:43:33.422Z,11.40
2019-05-09T10:46:19.294Z,10.93
2019-05-09T10:48:48.629Z,12.25
2019-05-09T10:51:18.588Z,8.03
2019-05-09T10:53:48.923Z,7.72
2019-05-09T10:56:18.671Z,8.78
2019-05-09T10:58:48.355Z,10.18
2019-05-09T11:01:18.584Z,9.50
2019-05-09T11:03:48.330Z,9.43
2019-05-09T11:06:18.478Z,10.25
2019-05-09T11:08:47.974Z,10.48
2019-05-09T11:11:18.373Z,9.58
2019-05-09T11:13:48.192Z,8.80
2019-05-09T11:16:18.260Z,8.25
2019-05-09T11:18:48.223Z,9.00
2019-05-09T11:21:19.165Z,8.35
2019-05-09T11:23:49.008Z,8.20
2019-05-09T11:26:18.159Z,8.15
2019-05-09T11:28:47.011Z,6.70
2019-05-09T11:31:18.530Z,7.72
2019-05-09T11:33:48.401Z,7.33
2019-05-09T11:36:20.729Z,7.47
2019-05-09T11:38:49.414Z,7.33
2019-05-09T11:41:19.223Z,6.37
2019-05-09T11:43:48.712Z,6.30
2019-05-09T11:46:18.189Z,4.28
2019-05-09T11:48:47.174Z,5.87
2019-05-09T11:51:20.437Z,5.72
2019-05-09T11:53:48.570Z,5.90
2019-05-09T11:56:18.055Z,4.25
2019-05-09T11:58:48.132Z,4.37
2019-05-09T12:01:19.367Z,3.85
2019-05-09T12:03:51.973Z,3.50
2019-05-09T12:06:20.070Z,4.30
2019-05-09T12:08:49.147Z,3.77
2019-05-09T12:11:18.590Z,3.83
2019-05-09T12:13:48.544Z,4.28
2019-05-09T12:16:18.462Z,3.90
2019-05-09T12:18:48.916Z,4.00
2019-05-09T12:21:19.085Z,3.40
2019-05-09T12:23:49.084Z,4.40
2019-05-09T12:26:18.408Z,4.87
2019-05-09T12:28:48.317Z,4.65
2019-05-09T12:31:18.390Z,4.40
2019-05-09T12:33:48.416Z,5.37
2019-05-09T12:36:19.053Z,5.35
2019-05-09T12:38:49.741Z,5.07
2019-05-09T12:41:19.332Z,5.22
2019-05-09T12:43:48.179Z,6.10
2019-05-09T12:46:17.076Z,4.85
2019-05-09T12:48:47.971Z,3.72
2019-05-09T12:51:18.425Z,4.20
2019-05-09T12:53:48.486Z,4.17
2019-05-09T12:56:18.719Z,4.95
2019-05-09T12:58:47.723Z,6.10
2019-05-09T13:01:18.842Z,3.90
2019-05-09T13:03:48.402Z,5.20
2019-05-09T13:06:20.222Z,4.53
2019-05-09T13:08:48.840Z,4.80
2019-05-09T13:11:18.794Z,4.67
2019-05-09T13:13:48.117Z,4.25
2019-05-09T13:16:44.254Z,5.05
2019-05-09T13:19:02.841Z,4.00
2019-05-09T13:21:32.827Z,3.90
2019-05-09T13:24:02.278Z,4.60
2019-05-09T13:26:31.223Z,7.37
2019-05-09T13:28:59.742Z,7.83
2019-05-09T13:31:29.668Z,6.72
2019-05-09T13:34:01.473Z,6.92
2019-05-09T13:39:04.599Z,7.10
2019-05-09T13:41:28.813Z,5.42
2019-05-09T13:44:03.657Z,5.42
2019-05-09T13:46:28.314Z,4.92
2019-05-09T13:49:11.029Z,4.10
2019-05-09T13:51:27.737Z,4.80
2019-05-09T13:53:59.129Z,4.60
2019-05-09T13:56:27.997Z,4.95
2019-05-09T13:58:58.165Z,4.78
2019-05-09T14:01:27.244Z,4.87
2019-05-09T14:03:57.696Z,4.55
2019-05-09T14:06:27.803Z,4.67
2019-05-09T14:08:59.448Z,4.20
2019-05-09T14:11:29.188Z,4.50
2019-05-09T14:13:57.679Z,4.55
2019-05-09T14:16:28.646Z,4.03
2019-05-09T14:19:00.569Z,3.60
2019-05-09T14:21:29.817Z,4.17
2019-05-09T14:24:10.802Z,4.12
2019-05-09T14:26:28.092Z,4.50
2019-05-09T14:28:58.255Z,3.90
2019-05-09T14:31:32.155Z,3.52
2019-05-09T14:33:57.422Z,3.05
2019-05-09T14:36:27.765Z,3.12
2019-05-09T14:38:58.008Z,4.05
2019-05-09T14:41:27.764Z,5.15
2019-05-09T14:43:56.591Z,4.72
2019-05-09T14:46:25.141Z,4.80
2019-05-09T14:48:53.681Z,5.83
2019-05-09T14:51:22.330Z,4.78
2019-05-09T14:53:50.938Z,4.10
2019-05-09T14:56:19.674Z,4.75
2019-05-09T14:58:48.647Z,5.00
2019-05-09T15:01:19.431Z,4.72
2019-05-09T15:03:48.532Z,5.12
2019-05-09T15:06:18.240Z,5.17
2019-05-09T15:08:48.245Z,5.30
2019-05-09T15:11:18.154Z,4.87
2019-05-09T15:13:47.692Z,4.25
2019-05-09T15:16:18.508Z,4.30
2019-05-09T15:18:48.684Z,4.22
2019-05-09T15:21:19.130Z,3.40
2019-05-09T15:23:48.169Z,4.05
2019-05-09T15:26:17.784Z,4.08
2019-05-09T15:28:48.366Z,3.30
2019-05-09T15:31:18.264Z,3.77
2019-05-09T15:33:48.649Z,3.58
2019-05-09T15:36:19.197Z,3.55
2019-05-09T15:38:48.606Z,4.55
2019-05-09T15:41:18.373Z,3.52
2019-05-09T15:43:48.555Z,3.65
2019-05-09T15:46:18.985Z,3.92
2019-05-09T15:48:47.917Z,3.62
2019-05-09T15:51:18.106Z,4.00
2019-05-09T15:53:48.655Z,3.83
2019-05-09T15:56:18.758Z,4.10
2019-05-09T15:58:49.084Z,3.35
2019-05-09T16:01:18.343Z,3.37
2019-05-09T16:03:48.581Z,4.05
2019-05-09T16:06:19.357Z,3.77
2019-05-09T16:08:47.649Z,3.40
2019-05-09T16:11:18.071Z,3.72
2019-05-09T16:13:48.048Z,3.93
2019-05-09T16:16:17.564Z,3.33
2019-05-09T16:18:48.690Z,3.42
2019-05-09T16:21:16.800Z,3.50
2019-05-09T16:23:45.265Z,4.40
2019-05-09T16:26:13.922Z,3.98
2019-05-09T16:28:42.482Z,3.98
2019-05-09T16:31:11.235Z,3.22
2019-05-09T16:33:40.069Z,4.83
2019-05-09T16:36:08.672Z,3.75
2019-05-09T16:38:43.432Z,4.03
2019-05-09T16:41:07.862Z,4.05
2019-05-09T16:43:38.598Z,4.12
2019-05-09T16:46:07.560Z,3.50
2019-05-09T16:48:36.270Z,3.42
2019-05-09T16:51:07.760Z,4.53
2019-05-09T16:53:35.225Z,4.50
2019-05-09T16:56:03.990Z,3.70
2019-05-09T16:58:32.497Z,4.70
2019-05-09T17:01:01.151Z,4.08
2019-05-09T17:03:29.791Z,3.77
2019-05-09T17:05:58.458Z,4.15
2019-05-09T17:08:28.276Z,4.42
2019-05-09T17:10:58.736Z,3.45
2019-05-09T17:13:28.919Z,3.58
2019-05-09T17:15:57.641Z,3.80
2019-05-09T17:18:28.409Z,3.72
2019-05-09T17:21:17.666Z,3.90
2019-05-09T17:23:38.486Z,3.80
2019-05-09T17:26:08.313Z,4.45
2019-05-09T17:28:37.652Z,4.50
2019-05-09T17:31:08.640Z,4.83
2019-05-09T17:33:37.947Z,4.25
2019-05-09T17:36:06.739Z,4.10
2019-05-09T17:38:35.433Z,4.25
2019-05-09T17:41:05.117Z,4.00
2019-05-09T17:43:33.720Z,4.92
2019-05-09T17:46:02.518Z,5.28
2019-05-09T17:48:31.129Z,4.20
2019-05-09T17:50:59.900Z,4.35
2019-05-09T17:53:31.252Z,3.77
2019-05-09T17:55:58.798Z,4.17
2019-05-09T17:58:32.970Z,3.75
2019-05-09T18:00:58.247Z,3.52
2019-05-09T18:03:29.076Z,3.55
2019-05-09T18:05:57.728Z,3.92
2019-05-09T18:08:28.344Z,4.62
2019-05-09T18:10:58.410Z,4.37
2019-05-09T18:13:29.609Z,3.92
2019-05-09T18:15:57.409Z,4.53
2019-05-09T18:18:28.413Z,4.28
2019-05-09T18:20:58.014Z,4.28
2019-05-09T18:23:28.413Z,4.67
2019-05-09T18:25:58.524Z,4.45
2019-05-09T18:28:29.315Z,4.25
2019-05-09T18:30:58.612Z,5.00
2019-05-09T18:33:29.155Z,4.30
2019-05-09T18:35:57.722Z,4.40
2019-05-09T18:38:29.613Z,4.67
2019-05-09T18:43:27.447Z,4.12
2019-05-09T18:45:57.769Z,4.30
2019-05-09T18:48:27.792Z,4.28
2019-05-09T18:50:57.208Z,3.83
2019-05-09T18:53:26.025Z,3.90
2019-05-09T18:55:54.595Z,4.00
2019-05-09T18:58:23.183Z,4.50
2019-05-09T19:00:52.380Z,4.60
2019-05-09T19:03:20.919Z,4.20
2019-05-09T19:05:49.610Z,4.72
2019-05-09T19:08:18.442Z,4.90
2019-05-09T19:10:47.416Z,5.20
2019-05-09T19:13:16.067Z,5.75
2019-05-09T19:15:46.576Z,5.55
2019-05-09T19:18:22.797Z,4.90
2019-05-09T19:20:56.241Z,5.08
2019-05-09T19:23:24.796Z,5.95
2019-05-09T19:25:53.319Z,5.75
2019-05-09T19:28:24.337Z,6.28
2019-05-09T19:30:52.355Z,6.03
2019-05-09T19:33:20.833Z,6.60
2019-05-09T19:35:49.583Z,6.20
2019-05-09T19:38:18.116Z,7.87
2019-05-09T19:40:46.709Z,7.50
2019-05-09T19:43:15.454Z,8.90
2019-05-09T19:45:43.907Z,9.35
2019-05-09T19:48:12.399Z,8.30
2019-05-09T19:50:41.233Z,8.48
2019-05-09T19:53:10.311Z,10.00
2019-05-09T19:55:38.910Z,10.10
2019-05-09T19:58:09.126Z,10.05
2019-05-09T20:00:37.897Z,10.20
2019-05-09T20:03:06.492Z,10.18
2019-05-09T20:05:35.300Z,10.70
2019-05-09T20:08:03.987Z,10.48
2019-05-09T20:10:50.564Z,9.88
2019-05-09T20:13:20.780Z,8.30
2019-05-09T20:15:49.327Z,8.98
2019-05-09T20:18:18.048Z,7.83
2019-05-09T20:20:46.601Z,8.68
2019-05-09T20:23:15.110Z,7.75
2019-05-09T20:25:44.047Z,8.18
2019-05-09T20:28:12.657Z,7.35
2019-05-09T20:30:41.367Z,6.05
2019-05-09T20:33:10.143Z,6.85
2019-05-09T20:35:38.696Z,6.80
2019-05-09T20:38:07.429Z,7.58
2019-05-09T20:40:36.588Z,6.90
2019-05-09T20:43:05.259Z,7.70
2019-05-09T20:45:33.936Z,8.68
2019-05-09T20:48:03.126Z,9.88
2019-05-09T20:50:31.825Z,11.45
2019-05-09T20:53:09.116Z,13.50
2019-05-09T20:55:30.886Z,15.25
2019-05-09T20:57:59.579Z,16.27
2019-05-09T21:00:28.887Z,18.37
2019-05-09T21:02:57.775Z,18.32
2019-05-09T21:05:26.508Z,19.67
2019-05-09T21:07:55.250Z,19.85
2019-05-09T21:10:24.352Z,19.75
2019-05-09T21:12:53.005Z,19.87
2019-05-09T21:15:21.670Z,20.52
2019-05-09T21:17:50.527Z,20.68
2019-05-09T21:20:19.491Z,20.60
2019-05-09T21:22:48.226Z,20.77
2019-05-09T21:25:17.303Z,21.37
2019-05-09T21:27:45.980Z,20.17
2019-05-09T21:30:18.372Z,18.73
2019-05-09T21:32:47.306Z,18.70
2019-05-09T21:35:15.870Z,18.90
2019-05-09T21:37:44.349Z,20.12
2019-05-09T21:40:13.775Z,20.08
2019-05-09T21:42:42.296Z,21.55
2019-05-09T21:45:11.092Z,21.60
2019-05-09T21:47:39.654Z,22.22
2019-05-09T21:50:08.556Z,21.33
2019-05-09T21:52:37.217Z,23.27
2019-05-09T21:55:06.177Z,21.75
2019-05-09T21:57:34.650Z,21.07
2019-05-09T22:00:05.159Z,23.42
2019-05-09T22:02:33.722Z,23.12
2019-05-09T22:05:02.817Z,22.90
2019-05-09T22:07:31.606Z,25.57
2019-05-09T22:10:00.304Z,24.12
2019-05-09T22:12:28.907Z,24.63
2019-05-09T22:14:57.455Z,24.67
2019-05-09T22:17:40.245Z,26.95
2019-05-09T22:20:10.762Z,25.57
2019-05-09T22:22:39.325Z,26.70
2019-05-09T22:25:09.942Z,21.33
2019-05-09T22:27:38.562Z,16.07
2019-05-09T22:30:09.500Z,15.75
2019-05-09T22:32:38.294Z,15.23
2019-05-09T22:35:07.720Z,9.65
2019-05-09T22:37:36.287Z,8.95
2019-05-09T22:40:09.886Z,6.33
2019-05-09T22:42:38.449Z,7.10
2019-05-09T22:45:08.373Z,6.30
2019-05-09T22:47:37.095Z,6.00
2019-05-09T22:50:06.310Z,5.05
2019-05-09T22:52:34.934Z,5.87
2019-05-09T22:55:04.172Z,6.70
2019-05-09T22:57:32.712Z,7.70
2019-05-09T23:00:01.695Z,7.60
2019-05-09T23:02:30.570Z,7.53
2019-05-09T23:04:59.109Z,7.83
2019-05-09T23:07:27.700Z,8.35
2019-05-09T23:09:56.548Z,8.63
2019-05-09T23:12:25.147Z,10.05
2019-05-09T23:14:53.737Z,10.58
2019-05-09T23:17:22.440Z,11.05
2019-05-09T23:19:50.967Z,11.18
2019-05-09T23:22:20.324Z,12.00
2019-05-09T23:24:49.077Z,9.53
2019-05-09T23:27:19.294Z,9.18
2019-05-09T23:29:47.776Z,8.73
2019-05-09T23:32:23.848Z,8.20
2019-05-09T23:34:52.330Z,8.05
2019-05-09T23:37:20.795Z,8.33
2019-05-09T23:39:52.267Z,7.10
2019-05-09T23:42:20.755Z,7.65
2019-05-09T23:44:49.310Z,7.62
2019-05-09T23:47:18.092Z,8.08
2019-05-09T23:49:46.635Z,7.40
2019-05-09T23:52:15.342Z,7.72
2019-05-09T23:55:03.903Z,7.00
2019-05-09T23:57:50.537Z,8.23
